Time;durP1;ratioP1;P1;durP2;ratioP2;P2;SDS_P1;SDS_P2;PMS_P1;PMS_P2;Temp;Humidity;BMP_temperature;BMP_pressure;BME280_temperature;BME280_humidity;BME280_pressure;Samples;Min_cycle;Max_cycle;Signal;HPM_P1;HPM_P2
2021/03/21 13:05:28;;;;;;;38.33;36.17;;;;;;;;;;5090860;28;20524;-68
2021/03/21 13:07:54;;;;;;;38.53;36.80;;;;;;;;;;5090970;28;20171;-68
2021/03/21 13:10:20;;;;;;;41.38;39.65;;;;;;;;;;5090879;28;20171;-68
2021/03/21 13:12:46;;;;;;;42.70;40.47;;;;;;;;;;5090855;28;20207;-70
2021/03/21 13:15:13;;;;;;;41.40;39.65;;;;;;;;;;5090756;28;20171;-68
2021/03/21 13:17:39;;;;;;;44.45;42.30;;;;;;;;;;5089370;28;20225;-68
2021/03/21 13:20:06;;;;;;;41.15;39.00;;;;;;;;;;5090669;28;20649;-68
2021/03/21 13:22:32;;;;;;;44.17;40.90;;;;;;;;;;5089312;28;20171;-68
2021/03/21 13:24:58;;;;;;;38.65;36.97;;;;;;;;;;5090452;28;20282;-68
2021/03/21 13:27:24;;;;;;;40.15;38.45;;;;;;;;;;5090496;28;20176;-68
2021/03/21 13:29:50;;;;;;;39.65;37.42;;;;;;;;;;5089142;28;20237;-68
2021/03/21 13:32:16;;;;;;;39.15;37.55;;;;;;;;;;5090438;28;20699;-68
2021/03/21 13:34:42;;;;;;;38.35;36.42;;;;;;;;;;5089136;28;20233;-69
2021/03/21 13:37:08;;;;;;;38.60;36.78;;;;;;;;;;5090361;28;20175;-68
2021/03/21 13:39:34;;;;;;;40.25;37.97;;;;;;;;;;5090356;28;20167;-68
2021/03/21 13:42:00;;;;;;;38.38;36.72;;;;;;;;;;5090292;28;20202;-69
2021/03/21 13:44:26;;;;;;;40.17;38.17;;;;;;;;;;5088819;28;20195;-68
2021/03/21 13:46:52;;;;;;;39.83;37.00;;;;;;;;;;5088924;28;20225;-69
2021/03/21 13:49:19;;;;;;;38.75;37.17;;;;;;;;;;5090103;28;20168;-68
2021/03/21 13:51:45;;;;;;;40.25;38.53;;;;;;;;;;5090052;28;20171;-69
2021/03/21 13:54:12;;;;;;;39.45;37.85;;;;;;;;;;5089940;28;20171;-69
2021/03/21 13:56:38;;;;;;;40.97;38.90;;;;;;;;;;5089998;28;20168;-68
2021/03/21 13:59:04;;;;;;;42.40;39.50;;;;;;;;;;5088624;28;20184;-69
2021/03/21 14:01:30;;;;;;;40.60;38.70;;;;;;;;;;5089904;28;20218;-68
2021/03/21 14:03:56;;;;;;;41.70;39.75;;;;;;;;;;5088251;28;20215;-69
2021/03/21 14:06:22;;;;;;;42.95;40.92;;;;;;;;;;5088494;28;20172;-72
2021/03/21 14:08:48;;;;;;;40.28;38.38;;;;;;;;;;5089764;28;20168;-71
2021/03/21 14:11:15;;;;;;;39.60;37.92;;;;;;;;;;5089652;28;20171;-70
2021/03/21 14:13:41;;;;;;;40.20;38.55;;;;;;;;;;5089616;28;20206;-70
2021/03/21 14:16:07;;;;;;;41.28;39.45;;;;;;;;;;5079755;28;20168;-70
2021/03/21 14:18:33;;;;;;;42.83;40.47;;;;;;;;;;5074993;28;20525;-70
2021/03/21 14:20:59;;;;;;;44.47;42.08;;;;;;;;;;5074730;28;20176;-70
2021/03/21 14:23:26;;;;;;;42.72;40.72;;;;;;;;;;5076254;28;20192;-70
2021/03/21 14:25:53;;;;;;;39.88;38.05;;;;;;;;;;5075918;28;20672;-71
2021/03/21 14:28:20;;;;;;;41.35;38.95;;;;;;;;;;5075799;28;20176;-71
2021/03/21 14:30:46;;;;;;;39.70;37.88;;;;;;;;;;5075809;28;20175;-70
2021/03/21 14:33:13;;;;;;;40.55;38.85;;;;;;;;;;5074542;28;20173;-70
2021/03/21 14:35:40;;;;;;;39.97;38.42;;;;;;;;;;5074461;28;20256;-70
2021/03/21 14:38:07;;;;;;;42.35;40.28;;;;;;;;;;5075677;28;20176;-70
2021/03/21 14:40:33;;;;;;;41.50;39.60;;;;;;;;;;5075617;28;20172;-70
2021/03/21 14:42:59;;;;;;;44.50;42.28;;;;;;;;;;5075515;28;20160;-70
2021/03/21 14:45:26;;;;;;;46.10;43.88;;;;;;;;;;5074354;28;20194;-70
2021/03/21 14:47:52;;;;;;;44.17;42.28;;;;;;;;;;5075547;28;20247;-70
2021/03/21 14:50:19;;;;;;;45.95;43.67;;;;;;;;;;5075505;28;20252;-70
2021/03/21 14:52:47;;;;;;;43.25;41.35;;;;;;;;;;5075525;28;20183;-69
2021/03/21 14:55:13;;;;;;;44.63;42.28;;;;;;;;;;5075331;28;20694;-70
2021/03/21 14:57:39;;;;;;;41.70;40.00;;;;;;;;;;5075362;28;20219;-70
2021/03/21 15:00:07;;;;;;;42.03;40.22;;;;;;;;;;5075327;28;20179;-70
2021/03/21 15:02:33;;;;;;;40.13;38.53;;;;;;;;;;5075388;28;20529;-69
2021/03/21 15:04:59;;;;;;;41.72;39.88;;;;;;;;;;5074890;28;20692;-69
2021/03/21 15:07:25;;;;;;;43.88;41.85;;;;;;;;;;5075132;28;20575;-69
2021/03/21 15:09:51;;;;;;;42.50;40.22;;;;;;;;;;5074999;28;20164;-70
2021/03/21 15:12:17;;;;;;;41.15;38.92;;;;;;;;;;5073747;28;20172;-70
2021/03/21 15:14:43;;;;;;;42.95;39.90;;;;;;;;;;5073656;28;20172;-69
2021/03/21 15:17:09;;;;;;;40.67;39.08;;;;;;;;;;5075091;28;20173;-70
2021/03/21 15:19:35;;;;;;;42.45;40.75;;;;;;;;;;5073652;28;20172;-70
2021/03/21 15:22:02;;;;;;;43.58;41.75;;;;;;;;;;5074817;28;20230;-70
2021/03/21 15:24:28;;;;;;;41.80;39.83;;;;;;;;;;5074665;28;20192;-69
2021/03/21 15:26:54;;;;;;;43.15;41.35;;;;;;;;;;5073775;28;20248;-69
2021/03/21 15:29:20;;;;;;;42.70;40.47;;;;;;;;;;5074821;28;20563;-69
2021/03/21 15:31:46;;;;;;;43.20;41.17;;;;;;;;;;5073523;28;20290;-69
2021/03/21 15:34:14;;;;;;;43.10;41.40;;;;;;;;;;5074828;28;20172;-70
2021/03/21 15:36:40;;;;;;;45.40;42.28;;;;;;;;;;5074556;28;20168;-70
2021/03/21 15:39:08;;;;;;;42.80;41.00;;;;;;;;;;5074554;28;20175;-70
2021/03/21 15:41:35;;;;;;;43.38;41.45;;;;;;;;;;5074492;28;20172;-68
2021/03/21 15:44:01;;;;;;;43.38;41.58;;;;;;;;;;5074515;28;20195;-69
2021/03/21 15:46:27;;;;;;;44.35;42.40;;;;;;;;;;5073009;28;20577;-70
2021/03/21 15:48:54;;;;;;;44.40;42.28;;;;;;;;;;5074328;28;20165;-70
2021/03/21 15:51:20;;;;;;;46.13;43.60;;;;;;;;;;5074171;28;20169;-69
2021/03/21 15:53:46;;;;;;;47.22;45.05;;;;;;;;;;5074204;28;20200;-70
2021/03/21 15:56:15;;;;;;;46.28;44.25;;;;;;;;;;5072855;28;20257;-70
2021/03/21 15:58:41;;;;;;;46.83;44.45;;;;;;;;;;5074125;28;20317;-70
2021/03/21 16:01:07;;;;;;;45.13;43.20;;;;;;;;;;5074183;28;20200;-70
2021/03/21 16:03:33;;;;;;;46.05;43.40;;;;;;;;;;5073669;28;20328;-71
2021/03/21 16:06:00;;;;;;;45.75;43.15;;;;;;;;;;5073894;28;20176;-70
2021/03/21 16:08:26;;;;;;;42.80;40.95;;;;;;;;;;5073897;28;20188;-70
2021/03/21 16:10:52;;;;;;;44.35;42.25;;;;;;;;;;5073927;28;20168;-70
2021/03/21 16:13:18;;;;;;;42.20;40.30;;;;;;;;;;5073848;28;20160;-70
2021/03/21 16:15:45;;;;;;;42.85;40.72;;;;;;;;;;5073815;28;20172;-70
2021/03/21 16:18:13;;;;;;;44.13;41.72;;;;;;;;;;5073656;28;20566;-70
2021/03/21 16:20:39;;;;;;;44.45;41.95;;;;;;;;;;5073635;28;20621;-70
2021/03/21 16:23:06;;;;;;;42.90;40.80;;;;;;;;;;5072322;28;20191;-70
2021/03/21 16:25:32;;;;;;;43.03;41.13;;;;;;;;;;5073627;28;20169;-70
2021/03/21 16:27:59;;;;;;;42.90;40.90;;;;;;;;;;5073563;28;20212;-70
2021/03/21 16:30:33;;;;;;;43.30;40.88;;;;;;;;;;5072385;28;20169;-70
2021/03/21 16:32:59;;;;;;;41.50;39.75;;;;;;;;;;5073523;28;20167;-70
2021/03/21 16:35:27;;;;;;;45.30;41.13;;;;;;;;;;5073573;28;20165;-70
